Time;durP1;ratioP1;P1;durP2;ratioP2;P2;SDS_P1;SDS_P2;PMS_P1;PMS_P2;Temp;Humidity;BMP_temperature;BMP_pressure;BME280_temperature;BME280_humidity;BME280_pressure;Samples;Min_cycle;Max_cycle;Signal;HPM_P1;HPM_P2
2022/10/27 00:01:45;;;;;;;;;;;25.90;79.30;;;;;;5097447;28;20615;-66
2022/10/27 00:04:11;;;;;;;;;;;26.00;78.50;;;;;;5104775;28;19919;-67
2022/10/27 00:06:38;;;;;;;;;;;26.10;78.50;;;;;;5104123;28;19907;-67
2022/10/27 00:09:05;;;;;;;;;;;26.30;78.50;;;;;;5085254;28;19912;-67
2022/10/27 00:11:31;;;;;;;;;;;26.40;76.80;;;;;;5095759;28;19908;-67
2022/10/27 00:13:58;;;;;;;;;;;26.60;76.30;;;;;;5105048;28;19908;-67
2022/10/27 00:16:25;;;;;;;;;;;26.70;76.10;;;;;;5104951;28;19916;-67
2022/10/27 00:18:51;;;;;;;;;;;26.70;75.20;;;;;;5104196;28;20061;-68
2022/10/27 00:21:20;;;;;;;;;;;26.70;75.10;;;;;;5105370;28;20006;-67
2022/10/27 00:23:50;;;;;;;;;;;26.70;75.10;;;;;;5104931;28;19922;-67
2022/10/27 00:26:18;;;;;;;;;;;26.90;75.10;;;;;;5085702;28;19965;-68
2022/10/27 00:28:45;;;;;;;;;;;27.10;75.20;;;;;;5105017;28;20384;-66
2022/10/27 00:31:16;;;;;;;;;;;27.30;74.60;;;;;;5103902;28;19961;-67
2022/10/27 00:33:43;;;;;;;;;;;27.50;73.70;;;;;;5104072;28;19914;-66
2022/10/27 00:36:11;;;;;;;;;;;27.80;74.30;;;;;;5104954;28;19907;-67
2022/10/27 00:38:38;;;;;;;;;;;28.00;73.30;;;;;;5101675;28;19912;-67
2022/10/27 00:41:06;;;;;;;;;;;28.10;71.40;;;;;;5104414;28;20382;-68
2022/10/27 00:43:37;;;;;;;;;;;28.20;73.20;;;;;;5102558;28;19992;-66
2022/10/27 00:46:14;;;;;;;;;;;28.40;69.90;;;;;;5104040;28;19916;-66
2022/10/27 00:48:40;;;;;;;;;;;28.50;70.00;;;;;;5100432;28;20020;-67
2022/10/27 00:51:08;;;;;;;;;;;28.40;67.80;;;;;;5105482;28;20003;-67
2022/10/27 00:53:35;;;;;;;;;;;28.40;66.90;;;;;;5104017;28;19907;-67
2022/10/27 00:56:02;;;;;;;;;;;28.30;67.30;;;;;;5103190;28;19912;-66
2022/10/27 00:58:29;;;;;;;;;;;28.40;66.70;;;;;;5103756;28;20634;-67
2022/10/27 01:00:56;;;;;;;;;;;28.60;67.70;;;;;;5102880;28;19912;-67
2022/10/27 01:03:22;;;;;;;;;;;28.70;66.70;;;;;;5100143;28;19921;-66
2022/10/27 01:05:50;;;;;;;;;;;28.80;66.20;;;;;;5098268;28;19922;-66
2022/10/27 01:08:17;;;;;;;;;;;28.80;65.40;;;;;;5101192;28;20027;-66
2022/10/27 01:10:44;;;;;;;;;;;28.70;65.80;;;;;;5103238;28;19923;-67
2022/10/27 01:13:11;;;;;;;;;;;28.60;66.50;;;;;;5100467;28;19960;-66
2022/10/27 01:15:56;;;;;;;;;;;28.40;66.10;;;;;;5102360;28;19912;-65
2022/10/27 01:18:26;;;;;;;;;;;28.20;66.00;;;;;;5098162;28;19923;-66
2022/10/27 01:21:17;;;;;;;;;;;28.00;66.00;;;;;;5083294;28;19912;-66
2022/10/27 01:24:01;;;;;;;;;;;27.80;66.80;;;;;;5087261;28;19916;-67
2022/10/27 01:26:46;;;;;;;;;;;27.70;66.90;;;;;;5104048;28;19916;-65
2022/10/27 01:29:16;;;;;;;;;;;27.60;67.50;;;;;;5103588;28;20003;-65
2022/10/27 01:32:01;;;;;;;;;;;27.40;68.60;;;;;;5103894;28;20361;-66
2022/10/27 01:34:28;;;;;;;;;;;27.20;69.00;;;;;;5097295;28;19944;-68
2022/10/27 01:37:01;;;;;;;;;;;27.10;69.80;;;;;;5101739;28;19918;-67
2022/10/27 01:39:35;;;;;;;;;;;26.60;80.60;;;;;;5103174;28;19907;-67
2022/10/27 01:42:06;;;;;;;;;;;25.50;86.00;;;;;;5102563;28;19911;-68
2022/10/27 01:44:35;;;;;;;;;;;24.20;90.50;;;;;;5090201;27;19921;-67
2022/10/27 01:47:03;;;;;;;;;;;23.20;92.10;;;;;;5106013;27;19916;-67
2022/10/27 01:49:36;;;;;;;;;;;22.60;93.60;;;;;;5103715;28;20494;-68
2022/10/27 01:52:03;;;;;;;;;;;22.10;95.10;;;;;;5083310;28;20376;-67
2022/10/27 01:54:30;;;;;;;;;;;21.70;97.10;;;;;;5095476;28;20368;-69
2022/10/27 01:57:09;;;;;;;;;;;21.40;98.80;;;;;;5103660;28;19908;-69
2022/10/27 01:59:45;;;;;;;;;;;21.20;99.90;;;;;;5096304;28;19912;-69
2022/10/27 02:02:12;;;;;;;;;;;21.10;99.90;;;;;;5086345;28;19935;-69
2022/10/27 02:04:56;;;;;;;;;;;21.10;99.90;;;;;;5086388;28;20014;-69
2022/10/27 02:07:27;;;;;;;;;;;21.20;99.90;;;;;;5081554;28;20297;-70
2022/10/27 02:10:00;;;;;;;;;;;21.60;99.90;;;;;;5092162;28;19908;-68
2022/10/27 02:12:29;;;;;;;;;;;22.10;99.90;;;;;;5102938;28;19908;-69
2022/10/27 02:14:57;;;;;;;;;;;22.50;99.90;;;;;;5102204;28;19922;-67
2022/10/27 02:17:26;;;;;;;;;;;23.20;99.90;;;;;;5102633;28;19912;-69
2022/10/27 02:19:54;;;;;;;;;;;23.90;99.90;;;;;;5102402;28;19938;-67
2022/10/27 02:22:21;;;;;;;;;;;24.50;98.50;;;;;;5102594;28;19912;-66
2022/10/27 02:24:48;;;;;;;;;;;24.90;95.20;;;;;;5089810;28;19916;-67
2022/10/27 02:27:22;;;;;;;;;;;25.20;94.00;;;;;;5089734;28;20003;-66
2022/10/27 02:29:49;;;;;;;;;;;25.30;93.80;;;;;;5096866;28;19980;-66
2022/10/27 02:32:19;;;;;;;;;;;25.10;93.10;;;;;;5100049;28;19915;-64
2022/10/27 02:34:47;;;;;;;;;;;24.90;92.50;;;;;;5102567;28;20272;-67
2022/10/27 02:37:39;;;;;;;;;;;24.80;93.20;;;;;;5102778;28;19923;-68
2022/10/27 02:40:06;;;;;;;;;;;25.10;93.60;;;;;;5077927;28;19912;-69
2022/10/27 02:42:33;;;;;;;;;;;25.70;94.50;;;;;;5101047;28;20006;-70
2022/10/27 02:45:00;;;;;;;;;;;26.30;93.20;;;;;;5101439;28;19919;-66
2022/10/27 02:47:26;;;;;;;;;;;26.60;92.00;;;;;;5086058;28;19954;-66
2022/10/27 02:49:53;;;;;;;;;;;27.50;92.00;;;;;;5103275;28;19912;-66
2022/10/27 02:52:20;;;;;;;;;;;28.10;87.00;;;;;;5083243;28;20392;-66
2022/10/27 02:54:47;;;;;;;;;;;28.40;87.20;;;;;;5102665;28;19915;-67
2022/10/27 02:57:15;;;;;;;;;;;28.40;83.80;;;;;;5103145;28;20017;-68
2022/10/27 02:59:42;;;;;;;;;;;28.40;85.90;;;;;;5101908;28;20430;-65
2022/10/27 03:02:08;;;;;;;;;;;28.70;86.70;;;;;;5105921;28;20371;-65
2022/10/27 03:04:35;;;;;;;;;;;29.80;78.80;;;;;;5099494;28;19931;-68
2022/10/27 03:07:03;;;;;;;;;;;30.50;76.80;;;;;;5106199;28;19955;-69
2022/10/27 03:09:29;;;;;;;;;;;30.10;75.10;;;;;;5106347;28;19915;-68
2022/10/27 03:11:56;;;;;;;;;;;29.00;76.70;;;;;;5106615;28;19907;-66
2022/10/27 03:14:22;;;;;;;;;;;28.10;77.60;;;;;;5106342;28;19908;-66
2022/10/27 03:16:49;;;;;;;;;;;27.20;78.50;;;;;;5105709;28;20596;-66
2022/10/27 03:19:16;;;;;;;;;;;26.60;80.70;;;;;;5104457;28;19908;-68
2022/10/27 03:21:42;;;;;;;;;;;26.20;82.00;;;;;;5100587;28;20613;-68
2022/10/27 03:24:09;;;;;;;;;;;25.90;82.70;;;;;;5105077;28;19994;-67
2022/10/27 03:26:35;;;;;;;;;;;25.60;82.80;;;;;;5099284;28;19912;-68
2022/10/27 03:29:02;;;;;;;;;;;25.40;82.70;;;;;;5106119;28;19919;-68
2022/10/27 03:31:29;;;;;;;;;;;25.20;82.80;;;;;;5105434;28;20752;-67
2022/10/27 03:33:55;;;;;;;;;;;25.00;86.00;;;;;;5104874;28;19915;-68
2022/10/27 03:36:22;;;;;;;;;;;24.70;87.40;;;;;;5104868;28;19907;-70
2022/10/27 03:38:48;;;;;;;;;;;24.70;88.80;;;;;;5105761;28;20002;-68
2022/10/27 03:41:15;;;;;;;;;;;24.60;90.10;;;;;;5105866;28;20328;-68
2022/10/27 03:43:42;;;;;;;;;;;24.60;89.80;;;;;;5099576;28;19908;-68
2022/10/27 03:46:09;;;;;;;;;;;24.50;89.40;;;;;;5086108;28;19920;-68
2022/10/27 03:48:36;;;;;;;;;;;24.50;89.50;;;;;;5102691;28;19912;-67
2022/10/27 03:51:03;;;;;;;;;;;24.60;90.30;;;;;;5107499;28;20449;-68
2022/10/27 03:53:29;;;;;;;;;;;24.80;89.50;;;;;;5105490;28;19908;-68
2022/10/27 03:55:56;;;;;;;;;;;24.80;87.60;;;;;;5092028;28;20003;-68
2022/10/27 03:58:23;;;;;;;;;;;24.80;87.70;;;;;;5086592;28;19912;-68
2022/10/27 04:00:50;;;;;;;;;;;25.40;86.20;;;;;;5086508;28;19919;-68
2022/10/27 04:03:17;;;;;;;;;;;25.80;85.30;;;;;;5101635;28;19920;-69
2022/10/27 04:05:44;;;;;;;;;;;26.00;84.10;;;;;;5073735;28;19951;-70
2022/10/27 04:08:10;;;;;;;;;;;26.00;84.70;;;;;;5098132;28;19911;-69
2022/10/27 04:10:37;;;;;;;;;;;25.90;84.20;;;;;;5104720;28;19958;-69
2022/10/27 04:13:03;;;;;;;;;;;25.80;84.60;;;;;;5086073;28;20047;-69
2022/10/27 04:15:30;;;;;;;;;;;25.80;84.40;;;;;;5095773;28;19912;-69
2022/10/27 04:17:58;;;;;;;;;;;25.70;83.90;;;;;;5106513;28;19980;-69
2022/10/27 04:20:25;;;;;;;;;;;25.70;85.00;;;;;;5086755;28;19922;-68
2022/10/27 04:22:55;;;;;;;;;;;25.60;85.20;;;;;;5103053;28;19918;-68
2022/10/27 04:25:22;;;;;;;;;;;25.50;86.00;;;;;;5104827;28;19916;-68
2022/10/27 04:27:48;;;;;;;;;;;25.50;85.00;;;;;;5104567;28;19931;-68
2022/10/27 04:30:15;;;;;;;;;;;25.30;84.60;;;;;;5105159;28;20368;-68
2022/10/27 04:32:42;;;;;;;;;;;25.10;85.20;;;;;;5086568;28;19998;-67
2022/10/27 04:35:08;;;;;;;;;;;25.10;85.30;;;;;;5093711;28;19908;-67
2022/10/27 04:37:35;;;;;;;;;;;25.10;85.70;;;;;;5104888;28;20519;-69
2022/10/27 04:40:02;;;;;;;;;;;25.10;85.60;;;;;;5104953;28;20425;-68
2022/10/27 04:42:29;;;;;;;;;;;25.10;85.40;;;;;;5067232;28;19954;-67
2022/10/27 04:44:55;;;;;;;;;;;25.10;85.30;;;;;;5100346;28;19962;-67
2022/10/27 04:47:22;;;;;;;;;;;25.30;85.00;;;;;;5092223;28;20007;-68
2022/10/27 04:49:49;;;;;;;;;;;25.30;84.90;;;;;;5085043;28;19908;-68
2022/10/27 04:52:15;;;;;;;;;;;25.40;84.20;;;;;;5103438;28;19912;-67
2022/10/27 04:54:42;;;;;;;;;;;25.40;84.60;;;;;;5105098;28;19942;-68
2022/10/27 04:57:08;;;;;;;;;;;25.20;84.70;;;;;;5105126;28;19933;-68
2022/10/27 04:59:35;;;;;;;;;;;25.20;85.20;;;;;;5105461;28;19908;-69
2022/10/27 05:02:02;;;;;;;;;;;25.10;86.00;;;;;;5105458;28;20383;-68
2022/10/27 05:04:28;;;;;;;;;;;25.10;86.40;;;;;;5104806;28;20026;-69
2022/10/27 05:06:55;;;;;;;;;;;25.10;86.70;;;;;;5092264;28;19926;-69
2022/10/27 05:09:21;;;;;;;;;;;25.10;87.00;;;;;;5104605;28;20291;-68
2022/10/27 05:11:48;;;;;;;;;;;25.20;87.00;;;;;;5103730;28;19917;-68
2022/10/27 05:14:15;;;;;;;;;;;25.30;86.50;;;;;;5103507;28;20335;-69
2022/10/27 05:16:41;;;;;;;;;;;25.30;86.50;;;;;;5091896;28;19919;-68
2022/10/27 05:19:08;;;;;;;;;;;25.40;86.10;;;;;;5084416;28;20022;-69
2022/10/27 05:21:35;;;;;;;;;;;25.40;85.90;;;;;;5095529;28;19908;-70
2022/10/27 05:24:01;;;;;;;;;;;25.60;85.90;;;;;;5103742;28;19908;-67
2022/10/27 05:26:28;;;;;;;;;;;26.30;85.10;;;;;;5098269;28;19916;-68
2022/10/27 05:28:54;;;;;;;;;;;27.10;81.30;;;;;;5103778;28;19956;-67
2022/10/27 05:31:21;;;;;;;;;;;28.10;80.60;;;;;;5086062;28;19919;-70
2022/10/27 05:33:48;;;;;;;;;;;29.60;77.80;;;;;;5103716;28;19911;-68
2022/10/27 05:36:14;;;;;;;;;;;30.80;72.30;;;;;;5097077;28;19912;-68
2022/10/27 05:38:41;;;;;;;;;;;30.80;71.80;;;;;;5099092;28;19920;-69
2022/10/27 05:41:08;;;;;;;;;;;30.70;72.30;;;;;;5103840;28;19954;-68
2022/10/27 05:43:35;;;;;;;;;;;31.70;69.70;;;;;;5103129;28;19922;-67
2022/10/27 05:46:01;;;;;;;;;;;32.20;69.70;;;;;;5098012;28;19916;-68
2022/10/27 05:48:28;;;;;;;;;;;32.90;68.40;;;;;;5084159;28;19908;-69
2022/10/27 05:50:55;;;;;;;;;;;33.90;66.30;;;;;;5096076;28;19912;-67
2022/10/27 05:53:22;;;;;;;;;;;34.90;64.40;;;;;;5095557;28;19951;-68
2022/10/27 05:55:51;;;;;;;;;;;35.90;63.00;;;;;;5096893;28;19911;-67
2022/10/27 05:58:17;;;;;;;;;;;36.30;60.80;;;;;;5085812;28;20299;-68
2022/10/27 06:00:44;;;;;;;;;;;36.90;60.00;;;;;;5092709;28;19908;-69
2022/10/27 06:03:21;;;;;;;;;;;37.50;57.40;;;;;;5103600;28;20891;-69
2022/10/27 06:05:48;;;;;;;;;;;37.90;51.30;;;;;;5101055;28;19972;-69
2022/10/27 06:08:15;;;;;;;;;;;36.90;51.10;;;;;;5101272;28;20002;-70
2022/10/27 06:10:42;;;;;;;;;;;36.60;50.50;;;;;;5103658;28;19916;-69
2022/10/27 06:13:10;;;;;;;;;;;36.60;50.10;;;;;;5103645;28;20300;-70
2022/10/27 06:15:37;;;;;;;;;;;36.60;50.40;;;;;;5103327;28;20746;-70
2022/10/27 06:18:05;;;;;;;;;;;36.60;49.60;;;;;;5101868;28;19919;-70
2022/10/27 06:20:32;;;;;;;;;;;36.40;49.90;;;;;;5099920;28;19912;-70
2022/10/27 06:22:59;;;;;;;;;;;35.50;50.40;;;;;;5103246;28;19922;-69
2022/10/27 06:25:25;;;;;;;;;;;35.70;50.40;;;;;;5103646;28;19916;-71
2022/10/27 06:27:52;;;;;;;;;;;35.90;50.50;;;;;;5096617;28;20360;-70
2022/10/27 06:30:19;;;;;;;;;;;36.00;49.20;;;;;;5102612;28;19912;-70
2022/10/27 06:32:45;;;;;;;;;;;35.40;49.50;;;;;;5104818;28;19911;-70
2022/10/27 06:35:12;;;;;;;;;;;35.10;50.80;;;;;;5103435;28;19959;-67
2022/10/27 06:37:43;;;;;;;;;;;34.40;51.00;;;;;;5105377;28;19919;-69
2022/10/27 06:40:10;;;;;;;;;;;33.90;51.10;;;;;;5105080;28;19933;-69
2022/10/27 06:42:38;;;;;;;;;;;33.20;52.40;;;;;;5103732;28;20396;-68
2022/10/27 06:45:05;;;;;;;;;;;32.70;53.40;;;;;;5096218;28;20020;-69
2022/10/27 06:47:32;;;;;;;;;;;32.20;53.80;;;;;;5102204;28;19965;-68
2022/10/27 06:49:58;;;;;;;;;;;31.60;54.80;;;;;;5096800;28;20542;-68
2022/10/27 06:52:26;;;;;;;;;;;31.00;54.60;;;;;;5107041;28;19929;-69
2022/10/27 06:54:52;;;;;;;;;;;30.30;55.40;;;;;;5107122;28;19915;-69
2022/10/27 06:57:19;;;;;;;;;;;29.40;56.30;;;;;;5101924;28;19947;-68
2022/10/27 06:59:46;;;;;;;;;;;28.70;58.00;;;;;;5103589;28;20011;-67
2022/10/27 07:02:13;;;;;;;;;;;28.30;59.00;;;;;;5104701;28;20750;-68
2022/10/27 07:04:40;;;;;;;;;;;27.90;60.90;;;;;;5105873;28;19924;-69
2022/10/27 07:07:07;;;;;;;;;;;27.80;62.20;;;;;;5103433;28;20324;-69
2022/10/27 07:09:33;;;;;;;;;;;27.70;63.40;;;;;;5087150;28;19908;-67
2022/10/27 07:12:00;;;;;;;;;;;27.40;64.00;;;;;;5093904;28;19937;-71
2022/10/27 07:14:27;;;;;;;;;;;27.20;64.90;;;;;;5106611;28;20142;-68
2022/10/27 07:16:53;;;;;;;;;;;27.00;65.50;;;;;;5105977;28;20283;-67
2022/10/27 07:19:20;;;;;;;;;;;26.70;66.10;;;;;;5086698;28;19916;-70
2022/10/27 07:21:46;;;;;;;;;;;26.50;67.20;;;;;;5087162;28;19908;-68
2022/10/27 07:24:13;;;;;;;;;;;26.40;67.70;;;;;;5094916;28;19938;-70
2022/10/27 07:26:40;;;;;;;;;;;26.20;68.00;;;;;;5107190;28;19908;-69
2022/10/27 07:29:06;;;;;;;;;;;26.10;69.00;;;;;;5086662;28;19915;-70
2022/10/27 07:31:33;;;;;;;;;;;26.00;68.80;;;;;;5086481;28;20081;-70
2022/10/27 07:34:00;;;;;;;;;;;25.90;69.40;;;;;;5087372;28;19919;-69
2022/10/27 07:36:26;;;;;;;;;;;25.80;69.60;;;;;;5092226;28;19912;-69
2022/10/27 07:38:53;;;;;;;;;;;25.70;69.70;;;;;;5095309;28;20268;-69
2022/10/27 07:41:20;;;;;;;;;;;25.70;69.40;;;;;;5105714;28;19919;-69
2022/10/27 07:43:47;;;;;;;;;;;25.60;69.40;;;;;;5104606;28;20524;-70
2022/10/27 07:46:14;;;;;;;;;;;25.60;69.60;;;;;;5104831;28;19915;-70
2022/10/27 07:48:41;;;;;;;;;;;25.50;69.10;;;;;;5104030;28;20010;-68
2022/10/27 07:51:07;;;;;;;;;;;25.40;69.70;;;;;;5100742;28;20350;-68
2022/10/27 07:53:34;;;;;;;;;;;25.30;70.60;;;;;;5106163;28;19912;-69
2022/10/27 07:56:01;;;;;;;;;;;25.20;70.90;;;;;;5100361;28;19957;-67
2022/10/27 07:58:28;;;;;;;;;;;25.20;71.30;;;;;;5101138;28;19951;-68
2022/10/27 08:00:56;;;;;;;;;;;25.10;71.60;;;;;;5105352;28;19916;-69
2022/10/27 08:03:28;;;;;;;;;;;25.00;73.10;;;;;;5105373;28;20014;-68
2022/10/27 08:05:57;;;;;;;;;;;24.90;72.60;;;;;;5095051;28;19924;-67
2022/10/27 08:08:24;;;;;;;;;;;24.90;73.60;;;;;;5090663;28;19908;-68
2022/10/27 08:10:51;;;;;;;;;;;24.80;71.90;;;;;;5086108;28;20270;-68
2022/10/27 08:13:17;;;;;;;;;;;24.80;71.20;;;;;;5102807;28;19908;-69
2022/10/27 08:15:44;;;;;;;;;;;24.70;71.20;;;;;;5097066;28;20655;-68
2022/10/27 08:18:11;;;;;;;;;;;24.60;70.60;;;;;;5101743;28;19916;-67
2022/10/27 08:20:39;;;;;;;;;;;24.50;69.40;;;;;;5097233;28;19908;-69
2022/10/27 08:23:08;;;;;;;;;;;24.50;68.70;;;;;;5104745;28;19908;-70
2022/10/27 08:25:34;;;;;;;;;;;24.40;68.10;;;;;;5103958;28;19972;-69
2022/10/27 08:28:01;;;;;;;;;;;24.40;67.10;;;;;;5102771;28;19908;-68
2022/10/27 08:30:29;;;;;;;;;;;24.30;67.10;;;;;;5084733;28;19990;-70
2022/10/27 08:32:56;;;;;;;;;;;24.20;66.80;;;;;;5085171;28;19943;-68
2022/10/27 08:35:24;;;;;;;;;;;24.20;66.30;;;;;;5092871;28;20409;-68
2022/10/27 08:37:56;;;;;;;;;;;24.10;67.00;;;;;;5105474;28;19908;-70
2022/10/27 08:40:23;;;;;;;;;;;24.00;66.20;;;;;;5103946;28;20304;-68
2022/10/27 08:42:59;;;;;;;;;;;23.90;66.10;;;;;;5104231;28;20332;-68
2022/10/27 08:45:30;;;;;;;;;;;23.80;66.60;;;;;;5100098;28;19920;-69
2022/10/27 08:47:57;;;;;;;;;;;23.70;66.90;;;;;;5103578;28;19912;-68
2022/10/27 08:50:26;;;;;;;;;;;23.70;66.50;;;;;;5100867;28;19919;-68
2022/10/27 08:52:54;;;;;;;;;;;23.60;67.10;;;;;;5103922;28;19965;-68
2022/10/27 08:55:27;;;;;;;;;;;23.50;67.10;;;;;;5096935;28;19908;-68
2022/10/27 08:58:02;;;;;;;;;;;23.40;68.20;;;;;;5085004;28;19908;-69
2022/10/27 09:00:30;;;;;;;;;;;23.40;68.30;;;;;;5084099;28;19909;-69
2022/10/27 09:02:57;;;;;;;;;;;23.30;67.30;;;;;;5095368;28;20395;-68
2022/10/27 09:05:26;;;;;;;;;;;23.20;66.60;;;;;;5096674;28;20295;-68
2022/10/27 09:08:11;;;;;;;;;;;23.10;66.70;;;;;;5085055;28;20580;-68
2022/10/27 09:10:40;;;;;;;;;;;23.10;66.60;;;;;;5103853;28;19915;-67
2022/10/27 09:13:07;;;;;;;;;;;23.00;66.20;;;;;;5103125;28;20360;-67
2022/10/27 09:15:37;;;;;;;;;;;23.00;66.30;;;;;;5094279;28;19957;-70
2022/10/27 09:18:16;;;;;;;;;;;22.90;66.10;;;;;;5092876;28;19919;-68
2022/10/27 09:20:47;;;;;;;;;;;22.90;66.90;;;;;;5097125;28;19908;-68
2022/10/27 09:23:16;;;;;;;;;;;22.80;66.50;;;;;;5096503;28;19916;-68
2022/10/27 09:25:44;;;;;;;;;;;22.80;67.80;;;;;;5103204;28;19915;-67
2022/10/27 09:28:15;;;;;;;;;;;22.70;67.80;;;;;;5100767;28;19912;-68
2022/10/27 09:30:42;;;;;;;;;;;22.70;67.20;;;;;;5090136;28;19958;-68
2022/10/27 09:33:12;;;;;;;;;;;22.60;67.40;;;;;;5104058;28;19918;-68
2022/10/27 09:35:39;;;;;;;;;;;22.60;68.00;;;;;;5100723;28;19959;-68
2022/10/27 09:38:08;;;;;;;;;;;22.50;68.20;;;;;;5100761;28;19955;-69
2022/10/27 09:40:36;;;;;;;;;;;22.50;68.30;;;;;;5094171;28;19991;-68
2022/10/27 09:43:03;;;;;;;;;;;22.40;67.70;;;;;;5102547;28;19916;-67
2022/10/27 09:45:29;;;;;;;;;;;22.40;68.80;;;;;;5095232;28;19920;-68
2022/10/27 09:47:59;;;;;;;;;;;22.40;69.00;;;;;;5101512;28;19937;-68
2022/10/27 09:50:29;;;;;;;;;;;22.30;69.60;;;;;;5082876;28;20287;-68
2022/10/27 09:52:55;;;;;;;;;;;22.30;70.10;;;;;;5083720;28;19908;-68
2022/10/27 09:55:22;;;;;;;;;;;22.20;69.50;;;;;;5101162;28;19908;-67
2022/10/27 09:57:49;;;;;;;;;;;22.20;70.30;;;;;;5086099;28;19961;-67
2022/10/27 10:00:15;;;;;;;;;;;22.10;71.00;;;;;;5083882;28;20079;-69
2022/10/27 10:02:57;;;;;;;;;;;22.10;72.10;;;;;;5083082;28;20300;-66
2022/10/27 10:05:34;;;;;;;;;;;22.00;73.10;;;;;;5100990;28;19920;-68
2022/10/27 10:08:21;;;;;;;;;;;21.90;74.10;;;;;;5101906;28;19915;-67
2022/10/27 10:10:54;;;;;;;;;;;21.80;75.10;;;;;;5083375;28;19908;-68
2022/10/27 10:13:22;;;;;;;;;;;21.70;75.80;;;;;;5083596;28;19912;-68
2022/10/27 10:16:03;;;;;;;;;;;21.60;75.80;;;;;;5099905;28;19956;-68
2022/10/27 10:18:30;;;;;;;;;;;21.50;76.50;;;;;;5103715;28;19908;-68
2022/10/27 10:20:58;;;;;;;;;;;21.40;77.20;;;;;;5101375;28;19918;-68
2022/10/27 10:23:27;;;;;;;;;;;21.40;77.20;;;;;;5101174;28;19912;-68
2022/10/27 10:25:55;;;;;;;;;;;21.30;78.00;;;;;;5102081;28;20018;-66
2022/10/27 10:28:25;;;;;;;;;;;21.20;78.40;;;;;;5103250;28;20290;-68
2022/10/27 10:30:52;;;;;;;;;;;21.10;78.80;;;;;;5083285;28;19908;-67
2022/10/27 10:33:22;;;;;;;;;;;21.00;79.60;;;;;;5076734;28;19999;-66
2022/10/27 10:35:49;;;;;;;;;;;20.90;79.50;;;;;;5103136;28;19912;-68
2022/10/27 10:38:36;;;;;;;;;;;21.00;79.40;;;;;;5104262;28;19908;-67
2022/10/27 10:41:10;;;;;;;;;;;20.90;79.00;;;;;;5102559;28;19920;-67
2022/10/27 10:43:37;;;;;;;;;;;20.80;79.40;;;;;;5087750;28;19912;-67
2022/10/27 10:46:04;;;;;;;;;;;20.70;80.00;;;;;;5102841;28;19926;-67
2022/10/27 10:48:46;;;;;;;;;;;20.80;79.70;;;;;;5103226;28;19980;-68
2022/10/27 10:51:22;;;;;;;;;;;20.80;79.00;;;;;;5103836;28;19968;-68
2022/10/27 10:53:50;;;;;;;;;;;20.80;80.10;;;;;;5099242;28;20359;-68
2022/10/27 10:56:28;;;;;;;;;;;20.70;79.30;;;;;;5083458;28;19939;-68
2022/10/27 10:59:00;;;;;;;;;;;20.80;79.60;;;;;;5083166;28;19912;-68
2022/10/27 11:01:47;;;;;;;;;;;20.70;80.40;;;;;;5104214;28;20011;-67
2022/10/27 11:04:16;;;;;;;;;;;20.80;80.30;;;;;;5103618;28;19920;-68
2022/10/27 11:06:58;;;;;;;;;;;20.70;81.30;;;;;;5104545;28;19924;-68
2022/10/27 11:09:27;;;;;;;;;;;20.70;81.10;;;;;;5103446;28;19915;-68
2022/10/27 11:11:54;;;;;;;;;;;20.70;80.00;;;;;;5103004;28;19908;-69
2022/10/27 11:14:23;;;;;;;;;;;20.70;79.40;;;;;;5103628;28;19907;-68
2022/10/27 11:16:51;;;;;;;;;;;20.70;80.00;;;;;;5103817;28;20357;-68
2022/10/27 11:19:19;;;;;;;;;;;20.70;80.10;;;;;;5104791;28;20352;-68
2022/10/27 11:21:52;;;;;;;;;;;20.80;81.00;;;;;;5107661;28;19908;-70
2022/10/27 11:24:38;;;;;;;;;;;20.70;81.70;;;;;;5108116;28;19947;-68
2022/10/27 11:27:25;;;;;;;;;;;20.70;81.40;;;;;;5075250;28;19948;-68
2022/10/27 11:29:52;;;;;;;;;;;20.60;80.60;;;;;;5057908;28;20338;-68
2022/10/27 11:32:36;;;;;;;;;;;20.60;80.90;;;;;;5107507;28;19994;-68
2022/10/27 11:35:03;;;;;;;;;;;20.60;80.90;;;;;;5107121;28;19914;-66
2022/10/27 11:37:29;;;;;;;;;;;20.60;80.40;;;;;;5107327;28;20014;-66
2022/10/27 11:40:02;;;;;;;;;;;20.60;80.40;;;;;;5106456;28;20401;-67
2022/10/27 11:42:28;;;;;;;;;;;20.60;81.40;;;;;;5106985;28;20386;-67
2022/10/27 11:45:12;;;;;;;;;;;20.60;81.60;;;;;;5106659;28;19923;-67
2022/10/27 11:47:50;;;;;;;;;;;20.60;81.50;;;;;;5107289;28;19953;-67
2022/10/27 11:50:24;;;;;;;;;;;20.50;81.30;;;;;;5107145;28;20423;-66
2022/10/27 11:52:53;;;;;;;;;;;20.50;81.80;;;;;;5107721;28;20003;-65
2022/10/27 11:55:21;;;;;;;;;;;20.50;81.70;;;;;;5106706;28;20379;-67
2022/10/27 11:58:09;;;;;;;;;;;20.50;82.10;;;;;;5106188;28;19912;-67
2022/10/27 12:00:47;;;;;;;;;;;20.50;82.70;;;;;;5106636;28;19995;-67
2022/10/27 12:03:36;;;;;;;;;;;20.60;83.20;;;;;;5106276;28;19948;-66
2022/10/27 12:06:03;;;;;;;;;;;20.60;83.20;;;;;;5105937;28;19916;-67
2022/10/27 12:08:29;;;;;;;;;;;20.60;82.70;;;;;;5089329;28;19916;-68
2022/10/27 12:10:59;;;;;;;;;;;20.60;82.20;;;;;;5086345;28;19907;-68
2022/10/27 12:13:46;;;;;;;;;;;20.60;82.50;;;;;;5086464;28;19951;-68
2022/10/27 12:16:15;;;;;;;;;;;20.60;82.40;;;;;;5089845;28;19912;-67
2022/10/27 12:18:42;;;;;;;;;;;20.60;82.40;;;;;;5106843;28;20269;-68
2022/10/27 12:21:27;;;;;;;;;;;20.60;82.10;;;;;;5105953;28;19908;-67
2022/10/27 12:23:59;;;;;;;;;;;20.60;82.30;;;;;;5106677;28;19908;-68
2022/10/27 12:26:32;;;;;;;;;;;20.60;82.40;;;;;;5105774;28;19949;-67
2022/10/27 12:28:59;;;;;;;;;;;20.60;82.50;;;;;;5088188;28;19916;-67
2022/10/27 12:31:28;;;;;;;;;;;20.60;82.20;;;;;;5084982;28;19934;-68
2022/10/27 12:33:56;;;;;;;;;;;20.60;83.00;;;;;;5085874;28;20454;-68
2022/10/27 12:36:41;;;;;;;;;;;20.50;82.60;;;;;;5084926;28;19912;-67
2022/10/27 12:39:26;;;;;;;;;;;20.50;82.90;;;;;;5085172;28;19908;-68
2022/10/27 12:41:55;;;;;;;;;;;20.50;83.90;;;;;;5085376;28;19953;-69
2022/10/27 12:44:22;;;;;;;;;;;20.50;84.80;;;;;;5094502;28;19912;-67
2022/10/27 12:46:48;;;;;;;;;;;20.40;85.10;;;;;;5085789;28;19966;-68
2022/10/27 12:49:33;;;;;;;;;;;20.40;85.20;;;;;;5085238;28;19942;-68
2022/10/27 12:52:04;;;;;;;;;;;20.40;84.80;;;;;;5085591;28;20387;-67
2022/10/27 12:54:49;;;;;;;;;;;20.30;84.70;;;;;;5066990;28;19916;-68
2022/10/27 12:57:29;;;;;;;;;;;20.30;84.90;;;;;;5084855;28;20003;-67
2022/10/27 13:00:02;;;;;;;;;;;20.30;84.80;;;;;;5085150;28;20004;-68
2022/10/27 13:02:32;;;;;;;;;;;20.30;85.30;;;;;;5084320;28;19919;-67
2022/10/27 13:05:18;;;;;;;;;;;20.20;84.30;;;;;;5084907;28;19924;-67
2022/10/27 13:08:00;;;;;;;;;;;20.20;84.60;;;;;;5085132;28;19918;-67
2022/10/27 13:10:35;;;;;;;;;;;20.20;85.00;;;;;;5084633;28;19918;-67
2022/10/27 13:13:17;;;;;;;;;;;20.20;84.60;;;;;;5085031;28;19912;-68
2022/10/27 13:15:55;;;;;;;;;;;20.10;84.60;;;;;;5090237;28;19946;-67
2022/10/27 13:18:39;;;;;;;;;;;20.10;84.70;;;;;;5099551;28;19916;-68
2022/10/27 13:21:21;;;;;;;;;;;20.00;85.10;;;;;;5085124;28;19999;-68
2022/10/27 13:24:10;;;;;;;;;;;19.90;85.70;;;;;;5085171;28;19908;-69
2022/10/27 13:26:42;;;;;;;;;;;19.90;85.80;;;;;;5084840;28;19916;-68
2022/10/27 13:29:33;;;;;;;;;;;19.90;86.00;;;;;;5084875;28;19912;-69
2022/10/27 13:32:24;;;;;;;;;;;19.80;86.50;;;;;;5078208;28;19928;-67
2022/10/27 13:35:00;;;;;;;;;;;19.80;85.30;;;;;;5054798;28;19991;-68
2022/10/27 13:37:43;;;;;;;;;;;19.80;85.00;;;;;;5084463;28;19909;-69
2022/10/27 13:40:22;;;;;;;;;;;19.80;84.80;;;;;;5084696;28;19919;-68
2022/10/27 13:42:53;;;;;;;;;;;19.80;85.30;;;;;;5083076;28;19919;-68
2022/10/27 13:45:28;;;;;;;;;;;19.80;84.80;;;;;;5084763;28;20331;-67
2022/10/27 13:48:07;;;;;;;;;;;19.80;84.70;;;;;;5084343;28;20317;-68
2022/10/27 13:50:33;;;;;;;;;;;19.80;84.00;;;;;;5084050;28;19909;-68
2022/10/27 13:53:15;;;;;;;;;;;19.80;83.80;;;;;;5084465;28;19912;-68
2022/10/27 13:55:42;;;;;;;;;;;19.80;83.90;;;;;;5084351;28;19908;-68
2022/10/27 13:58:21;;;;;;;;;;;19.80;84.40;;;;;;5084506;28;19916;-67
2022/10/27 14:01:06;;;;;;;;;;;19.70;84.80;;;;;;5084159;28;20357;-68
2022/10/27 14:03:42;;;;;;;;;;;19.70;84.90;;;;;;5083819;28;20285;-67
2022/10/27 14:06:08;;;;;;;;;;;19.70;84.60;;;;;;5084151;28;19920;-68
2022/10/27 14:08:55;;;;;;;;;;;19.70;85.00;;;;;;5083716;28;20625;-68
2022/10/27 14:11:44;;;;;;;;;;;19.60;83.90;;;;;;5083616;28;19908;-68
2022/10/27 14:14:31;;;;;;;;;;;19.60;84.30;;;;;;5084082;28;20009;-67
2022/10/27 14:17:01;;;;;;;;;;;19.50;85.00;;;;;;5083677;28;19916;-68
2022/10/27 14:19:29;;;;;;;;;;;19.50;83.90;;;;;;5083815;28;20436;-68
2022/10/27 14:21:57;;;;;;;;;;;19.50;84.20;;;;;;5083831;28;20445;-68
2022/10/27 14:24:26;;;;;;;;;;;19.40;84.80;;;;;;5083333;28;20031;-70
2022/10/27 14:26:59;;;;;;;;;;;19.40;85.70;;;;;;5083784;28;19955;-68
2022/10/27 14:29:26;;;;;;;;;;;19.40;85.10;;;;;;5083645;28;20372;-66
2022/10/27 14:32:11;;;;;;;;;;;19.40;85.40;;;;;;5083770;28;20426;-69
2022/10/27 14:34:38;;;;;;;;;;;19.20;85.40;;;;;;5083467;28;19912;-67